Time;durP1;ratioP1;P1;durP2;ratioP2;P2;SDS_P1;SDS_P2;PMS_P1;PMS_P2;Temp;Humidity;BMP_temperature;BMP_pressure;BME280_temperature;BME280_humidity;BME280_pressure;Samples;Min_cycle;Max_cycle;Signal;HPM_P1;HPM_P2
2021/04/29 00:01:46;;;;;;;2.20;1.98;;;13.40;99.90;;;;;;5067660;28;20285;-56
2021/04/29 00:04:12;;;;;;;3.35;2.60;;;13.40;99.90;;;;;;5067812;28;20024;-56
2021/04/29 00:06:37;;;;;;;4.22;2.70;;;13.40;99.90;;;;;;5067010;28;20104;-56
2021/04/29 00:09:04;;;;;;;2.75;2.50;;;13.30;99.90;;;;;;5067166;28;20021;-56
2021/04/29 00:11:31;;;;;;;2.50;2.30;;;13.20;99.90;;;;;;5066699;28;20029;-56
2021/04/29 00:13:57;;;;;;;2.40;2.00;;;13.10;99.90;;;;;;5067446;28;20410;-56
2021/04/29 00:16:23;;;;;;;2.58;2.00;;;13.10;99.90;;;;;;5066942;28;20028;-56
2021/04/29 00:18:49;;;;;;;1.77;1.67;;;13.10;99.90;;;;;;5067834;28;20024;-56
2021/04/29 00:21:15;;;;;;;2.20;2.00;;;13.10;99.90;;;;;;5067794;28;20534;-56
2021/04/29 00:23:42;;;;;;;1.98;1.60;;;13.00;99.90;;;;;;5081690;28;20229;-56
2021/04/29 00:26:08;;;;;;;2.13;1.92;;;13.10;99.90;;;;;;5082415;28;20087;-56
2021/04/29 00:28:33;;;;;;;2.67;2.10;;;13.20;99.90;;;;;;5069736;28;20104;-56
2021/04/29 00:31:00;;;;;;;2.08;1.58;;;13.20;99.90;;;;;;5077992;28;20479;-56
2021/04/29 00:33:27;;;;;;;1.42;1.33;;;13.20;99.90;;;;;;5066737;28;20044;-56
2021/04/29 00:35:52;;;;;;;1.80;1.70;;;13.20;99.90;;;;;;5082652;28;20017;-56
2021/04/29 00:38:18;;;;;;;2.13;1.90;;;13.30;99.90;;;;;;5087507;28;20111;-56
2021/04/29 00:40:44;;;;;;;2.10;1.90;;;13.30;99.90;;;;;;5086624;28;20103;-56
2021/04/29 00:43:11;;;;;;;2.03;1.83;;;13.30;99.90;;;;;;5086982;28;20036;-56
2021/04/29 00:45:38;;;;;;;3.80;2.30;;;13.30;99.90;;;;;;5086513;28;20016;-56
2021/04/29 00:48:04;;;;;;;2.58;2.10;;;13.30;99.90;;;;;;5070219;28;20074;-57
2021/04/29 00:50:31;;;;;;;2.00;1.80;;;13.30;99.90;;;;;;5066089;28;20029;-56
2021/04/29 00:52:56;;;;;;;2.00;1.80;;;13.30;99.90;;;;;;5066438;28;20060;-56
2021/04/29 00:55:23;;;;;;;2.58;2.17;;;13.40;99.90;;;;;;5066311;28;20429;-57
2021/04/29 00:57:50;;;;;;;2.30;2.08;;;13.30;99.90;;;;;;5067090;28;20082;-56
2021/04/29 01:00:16;;;;;;;3.33;2.67;;;13.30;99.90;;;;;;5067088;28;20029;-56
2021/04/29 01:02:50;;;;;;;2.20;2.00;;;13.30;99.90;;;;;;5065886;28;20036;-56
2021/04/29 01:05:23;;;;;;;2.25;2.05;;;13.40;99.90;;;;;;5066736;28;20108;-56
2021/04/29 01:07:59;;;;;;;4.32;2.70;;;13.30;99.90;;;;;;5066736;28;20074;-56
2021/04/29 01:10:31;;;;;;;2.60;2.40;;;13.30;99.90;;;;;;5065384;28;20028;-56
2021/04/29 01:13:09;;;;;;;3.70;2.80;;;13.30;99.90;;;;;;5066081;28;20032;-56
2021/04/29 01:15:38;;;;;;;4.00;2.83;;;13.20;99.90;;;;;;5065590;28;20030;-56
2021/04/29 01:18:07;;;;;;;3.55;2.58;;;13.00;99.90;;;;;;5065984;28;20029;-56
2021/04/29 01:20:57;;;;;;;3.28;2.28;;;13.20;99.90;;;;;;5065083;28;20024;-56
2021/04/29 01:23:42;;;;;;;3.13;2.65;;;13.30;99.90;;;;;;5065326;28;20414;-57
2021/04/29 01:26:25;;;;;;;3.65;2.70;;;13.20;99.90;;;;;;5065709;28;20513;-56
2021/04/29 01:28:52;;;;;;;2.83;2.30;;;13.20;99.90;;;;;;5065571;28;20032;-56
2021/04/29 01:31:22;;;;;;;2.50;2.30;;;13.20;99.90;;;;;;5067059;28;20107;-56
2021/04/29 01:33:49;;;;;;;2.92;2.63;;;13.20;99.90;;;;;;5059525;28;20083;-56
2021/04/29 01:36:15;;;;;;;2.65;2.42;;;13.20;99.90;;;;;;5053493;28;20080;-56
2021/04/29 01:38:41;;;;;;;3.58;2.83;;;13.20;99.90;;;;;;5067082;28;20024;-56
2021/04/29 01:41:07;;;;;;;3.28;2.70;;;13.20;99.90;;;;;;5067369;28;20036;-56
2021/04/29 01:43:35;;;;;;;3.05;2.72;;;13.20;99.90;;;;;;5059125;28;20108;-56
2021/04/29 01:46:05;;;;;;;2.83;2.60;;;13.20;99.90;;;;;;5047250;28;20390;-56
2021/04/29 01:48:31;;;;;;;3.58;2.92;;;13.20;99.90;;;;;;5046839;28;20092;-56
2021/04/29 01:50:58;;;;;;;3.58;2.92;;;13.20;99.90;;;;;;5047195;28;20104;-56
2021/04/29 01:53:25;;;;;;;3.95;3.08;;;13.10;99.90;;;;;;5046559;28;20467;-57
2021/04/29 01:55:52;;;;;;;3.38;2.83;;;12.90;99.90;;;;;;5055621;28;20020;-56
2021/04/29 01:58:18;;;;;;;4.57;3.08;;;12.70;99.90;;;;;;5067686;28;20028;-56
2021/04/29 02:00:43;;;;;;;4.22;2.90;;;12.70;99.90;;;;;;5066896;28;20094;-56
2021/04/29 02:03:09;;;;;;;3.75;2.72;;;12.80;99.90;;;;;;5062907;28;20033;-56
2021/04/29 02:05:35;;;;;;;5.35;2.40;;;13.00;99.90;;;;;;5046576;28;20025;-56
2021/04/29 02:08:02;;;;;;;2.78;2.30;;;12.90;99.90;;;;;;5046945;28;20061;-56
2021/04/29 02:10:27;;;;;;;3.15;2.42;;;13.00;99.90;;;;;;5062786;28;20029;-56
2021/04/29 02:12:57;;;;;;;2.25;1.88;;;13.00;99.90;;;;;;5066905;28;20654;-56
2021/04/29 02:15:28;;;;;;;2.30;2.10;;;12.90;99.90;;;;;;5066582;28;20044;-56
2021/04/29 02:18:10;;;;;;;2.38;2.00;;;13.00;99.90;;;;;;5066699;28;20027;-56
2021/04/29 02:20:41;;;;;;;2.25;2.00;;;12.90;99.90;;;;;;5065198;28;20089;-56
2021/04/29 02:23:11;;;;;;;1.98;1.70;;;13.00;99.90;;;;;;5066810;28;20062;-56
2021/04/29 02:25:39;;;;;;;1.70;1.60;;;13.20;99.90;;;;;;5064616;28;20059;-56
2021/04/29 02:28:05;;;;;;;2.25;1.98;;;13.20;99.90;;;;;;5064835;28;20795;-56
2021/04/29 02:30:32;;;;;;;2.17;1.98;;;13.20;99.90;;;;;;5066537;28;20036;-56
2021/04/29 02:33:01;;;;;;;1.92;1.83;;;13.20;99.90;;;;;;5065900;28;20029;-56
2021/04/29 02:35:28;;;;;;;2.72;2.05;;;13.20;99.90;;;;;;5050060;28;20021;-56
2021/04/29 02:37:55;;;;;;;2.20;2.00;;;13.00;99.90;;;;;;5046431;28;20104;-56
2021/04/29 02:40:22;;;;;;;1.80;1.70;;;13.00;99.90;;;;;;5046491;28;20078;-56
2021/04/29 02:42:48;;;;;;;3.35;2.47;;;12.90;99.90;;;;;;5047195;28;20029;-56
2021/04/29 02:45:15;;;;;;;2.60;2.15;;;12.70;99.90;;;;;;5046213;28;20044;-56
2021/04/29 02:47:45;;;;;;;2.00;1.80;;;12.90;99.90;;;;;;5046206;28;20100;-57
2021/04/29 02:50:12;;;;;;;1.83;1.73;;;13.00;99.90;;;;;;5046249;28;20040;-56
2021/04/29 02:52:39;;;;;;;2.47;2.05;;;13.00;99.90;;;;;;5046290;28;20045;-56
2021/04/29 02:55:06;;;;;;;2.00;1.85;;;13.00;99.90;;;;;;5046000;28;20025;-56
2021/04/29 02:57:32;;;;;;;2.15;1.90;;;13.00;99.90;;;;;;5046003;28;20033;-56
2021/04/29 02:59:58;;;;;;;2.55;2.03;;;13.10;99.90;;;;;;5062792;28;20069;-56
2021/04/29 03:02:24;;;;;;;2.80;2.25;;;13.00;99.90;;;;;;5065992;28;20456;-56
2021/04/29 03:04:50;;;;;;;2.75;2.22;;;13.00;99.90;;;;;;5066087;28;20032;-56
2021/04/29 03:07:16;;;;;;;2.42;2.22;;;13.10;99.90;;;;;;5049534;28;20028;-56
2021/04/29 03:09:42;;;;;;;2.13;1.92;;;13.10;99.90;;;;;;5049831;28;20086;-57
2021/04/29 03:12:08;;;;;;;3.85;1.85;;;13.10;99.90;;;;;;5049811;28;20106;-57
2021/04/29 03:14:34;;;;;;;2.20;2.00;;;13.10;99.90;;;;;;5049735;28;20564;-56
2021/04/29 03:17:00;;;;;;;2.78;2.47;;;13.10;99.90;;;;;;5064143;28;20078;-56
2021/04/29 03:19:25;;;;;;;2.78;2.53;;;13.10;99.90;;;;;;5069756;28;20494;-56
2021/04/29 03:21:51;;;;;;;2.95;2.15;;;13.10;99.90;;;;;;5069855;28;20033;-56
2021/04/29 03:24:17;;;;;;;2.70;2.50;;;13.10;99.90;;;;;;5070699;28;20127;-56
2021/04/29 03:26:42;;;;;;;3.15;2.60;;;13.10;99.90;;;;;;5056092;28;20041;-56
2021/04/29 03:29:08;;;;;;;3.17;2.33;;;13.00;99.90;;;;;;5049709;28;20388;-56
2021/04/29 03:31:34;;;;;;;3.10;2.80;;;13.00;99.90;;;;;;5049582;28;20466;-56
2021/04/29 03:34:00;;;;;;;3.85;2.90;;;13.00;99.90;;;;;;5053049;28;20029;-56
2021/04/29 03:36:25;;;;;;;3.17;2.72;;;13.00;99.90;;;;;;5067722;28;20064;-56
2021/04/29 03:38:52;;;;;;;3.47;3.00;;;12.90;99.90;;;;;;5069651;28;20487;-56
2021/04/29 03:41:18;;;;;;;2.88;2.60;;;12.90;99.90;;;;;;5070119;28;20028;-56
2021/04/29 03:43:44;;;;;;;2.65;2.45;;;12.80;99.90;;;;;;5066491;28;20028;-57
2021/04/29 03:46:09;;;;;;;3.03;2.70;;;12.90;99.90;;;;;;5068433;28;20631;-56
2021/04/29 03:48:35;;;;;;;2.80;2.50;;;12.90;99.90;;;;;;5069020;28;20589;-56
2021/04/29 03:51:01;;;;;;;2.72;2.33;;;12.80;99.90;;;;;;5066942;28;20054;-57
2021/04/29 03:53:27;;;;;;;2.35;2.15;;;12.80;99.90;;;;;;5066462;28;20029;-57
2021/04/29 03:55:53;;;;;;;2.50;2.30;;;12.80;99.90;;;;;;5067896;28;20031;-57
2021/04/29 03:58:18;;;;;;;2.55;2.33;;;12.90;99.90;;;;;;5068381;28;20095;-57
2021/04/29 04:00:44;;;;;;;2.67;2.25;;;12.90;99.90;;;;;;5066075;28;20032;-56
2021/04/29 04:03:10;;;;;;;2.45;2.25;;;12.80;99.90;;;;;;5055946;28;20037;-57
2021/04/29 04:05:36;;;;;;;3.13;2.08;;;12.70;99.90;;;;;;5056385;28;20036;-56
2021/04/29 04:08:01;;;;;;;2.05;1.92;;;12.70;99.90;;;;;;5056957;28;20279;-56
2021/04/29 04:10:27;;;;;;;3.30;1.88;;;12.80;99.90;;;;;;5046805;28;20033;-56
2021/04/29 04:12:53;;;;;;;2.40;2.20;;;12.80;99.90;;;;;;5047502;28;20029;-57
2021/04/29 04:15:19;;;;;;;2.78;2.30;;;12.90;99.90;;;;;;5047968;28;20044;-56
2021/04/29 04:17:45;;;;;;;2.50;1.98;;;12.90;99.90;;;;;;5061897;28;20073;-56
2021/04/29 04:20:11;;;;;;;2.33;2.13;;;12.90;99.90;;;;;;5068070;28;20161;-56
2021/04/29 04:22:37;;;;;;;2.53;2.00;;;13.00;99.90;;;;;;5061025;28;20025;-56
2021/04/29 04:25:03;;;;;;;2.40;2.20;;;13.00;99.90;;;;;;5067825;28;20082;-57
2021/04/29 04:27:29;;;;;;;3.70;2.90;;;13.00;99.90;;;;;;5068173;28;20055;-56
2021/04/29 04:29:56;;;;;;;2.35;2.15;;;13.00;99.90;;;;;;5067417;28;20449;-57
2021/04/29 04:32:21;;;;;;;2.63;2.42;;;13.00;99.90;;;;;;5063584;28;20044;-56
2021/04/29 04:34:47;;;;;;;2.60;2.40;;;13.00;99.90;;;;;;5066380;28;20033;-56
2021/04/29 04:37:13;;;;;;;2.42;2.22;;;13.00;99.90;;;;;;5067029;28;20347;-57
2021/04/29 04:39:39;;;;;;;1.95;1.77;;;13.00;99.90;;;;;;5061281;28;20024;-57
2021/04/29 04:42:05;;;;;;;1.63;1.52;;;13.00;99.90;;;;;;5046817;28;20036;-56
2021/04/29 04:44:31;;;;;;;2.00;1.80;;;13.00;99.90;;;;;;5065834;28;20036;-57
2021/04/29 04:46:57;;;;;;;1.98;1.60;;;12.70;99.90;;;;;;5066767;28;20593;-57
2021/04/29 04:49:23;;;;;;;2.65;1.75;;;12.60;99.90;;;;;;5066440;28;20458;-57
2021/04/29 04:51:50;;;;;;;1.90;1.75;;;12.50;99.90;;;;;;5067373;28;20458;-56
2021/04/29 04:54:19;;;;;;;1.73;1.60;;;12.60;99.90;;;;;;5066101;28;20040;-56
2021/04/29 04:56:46;;;;;;;2.25;2.00;;;12.60;99.90;;;;;;5066809;28;20017;-57
2021/04/29 04:59:13;;;;;;;1.38;1.25;;;12.70;99.90;;;;;;5066937;28;20477;-56
2021/04/29 05:01:39;;;;;;;1.40;1.27;;;12.70;99.90;;;;;;5064169;28;20507;-56
2021/04/29 05:04:05;;;;;;;1.40;1.30;;;12.90;99.90;;;;;;5066446;28;20028;-56
2021/04/29 05:06:37;;;;;;;1.42;1.30;;;13.10;99.90;;;;;;5066136;28;20546;-56
2021/04/29 05:09:06;;;;;;;2.00;1.30;;;13.10;99.90;;;;;;5066410;28;20564;-57
2021/04/29 05:11:32;;;;;;;2.00;1.80;;;13.10;99.90;;;;;;5064370;28;20033;-57
2021/04/29 05:13:58;;;;;;;1.95;1.80;;;13.10;99.90;;;;;;5048736;28;20036;-57
2021/04/29 05:16:25;;;;;;;2.55;2.30;;;13.10;99.90;;;;;;5045943;28;20403;-57
2021/04/29 05:18:51;;;;;;;2.53;1.92;;;13.10;99.90;;;;;;5046311;28;20029;-57
2021/04/29 05:21:17;;;;;;;3.05;2.40;;;13.10;99.90;;;;;;5047242;28;20067;-57
2021/04/29 05:23:44;;;;;;;3.22;2.33;;;13.10;99.90;;;;;;5052437;28;20028;-57
2021/04/29 05:26:09;;;;;;;2.47;2.25;;;13.10;99.90;;;;;;5065945;28;20399;-57
2021/04/29 05:28:35;;;;;;;2.47;1.80;;;13.10;99.90;;;;;;5064638;28;20067;-56
2021/04/29 05:31:02;;;;;;;2.08;1.90;;;13.10;99.90;;;;;;5065096;28;20108;-56
2021/04/29 05:33:27;;;;;;;2.55;2.10;;;13.10;99.90;;;;;;5065658;28;20043;-57
2021/04/29 05:35:53;;;;;;;2.40;2.20;;;13.10;99.90;;;;;;5065893;28;20025;-57
2021/04/29 05:38:20;;;;;;;2.47;2.20;;;13.10;99.90;;;;;;5054406;28;20025;-57
2021/04/29 05:40:45;;;;;;;2.20;2.00;;;13.10;99.90;;;;;;5046650;28;20021;-57
2021/04/29 05:43:12;;;;;;;1.92;1.75;;;13.20;99.90;;;;;;5051914;28;20039;-57
2021/04/29 05:45:40;;;;;;;2.30;2.10;;;13.20;99.90;;;;;;5062884;28;20021;-57
2021/04/29 05:48:06;;;;;;;2.38;2.00;;;13.30;99.90;;;;;;5065423;28;20030;-57
2021/04/29 05:50:33;;;;;;;2.40;2.13;;;13.30;99.90;;;;;;5065544;28;20024;-57
2021/04/29 05:52:59;;;;;;;2.60;2.08;;;13.30;99.90;;;;;;5065622;28;20405;-57
2021/04/29 05:55:24;;;;;;;2.50;2.28;;;13.40;99.90;;;;;;5061891;28;20032;-57
2021/04/29 05:57:54;;;;;;;2.72;2.00;;;13.30;99.90;;;;;;5045617;28;20025;-57
2021/04/29 06:00:20;;;;;;;2.47;2.00;;;13.30;99.90;;;;;;5047618;28;20031;-57
2021/04/29 06:02:47;;;;;;;2.22;2.03;;;13.30;99.90;;;;;;5065674;28;20033;-56
2021/04/29 06:05:12;;;;;;;2.42;2.00;;;13.40;99.90;;;;;;5065631;28;20074;-57
2021/04/29 06:07:39;;;;;;;3.30;2.22;;;13.40;99.90;;;;;;5045771;28;20531;-56
2021/04/29 06:10:05;;;;;;;3.10;2.15;;;13.40;99.90;;;;;;5045020;28;20029;-57
2021/04/29 06:12:31;;;;;;;2.70;1.77;;;13.40;99.90;;;;;;5045245;28;20033;-57
2021/04/29 06:14:56;;;;;;;2.58;2.30;;;13.50;99.90;;;;;;5058309;28;20040;-57
2021/04/29 06:17:22;;;;;;;2.60;2.30;;;13.60;99.90;;;;;;5064818;28;20433;-57
2021/04/29 06:19:48;;;;;;;2.13;1.92;;;13.60;99.90;;;;;;5065996;28;20048;-56
2021/04/29 06:22:13;;;;;;;3.30;2.10;;;13.60;99.90;;;;;;5059533;28;20143;-57
2021/04/29 06:24:39;;;;;;;2.28;1.75;;;13.70;99.90;;;;;;5053918;28;20503;-57
2021/04/29 06:27:05;;;;;;;1.73;1.63;;;13.70;99.90;;;;;;5065221;28;20033;-57
2021/04/29 06:29:34;;;;;;;1.88;1.60;;;13.70;99.90;;;;;;5065100;28;20035;-56
2021/04/29 06:32:00;;;;;;;1.98;1.35;;;13.70;99.90;;;;;;5065043;28;20031;-56
2021/04/29 06:34:26;;;;;;;2.17;1.60;;;13.60;99.90;;;;;;5063335;28;20400;-57
2021/04/29 06:36:51;;;;;;;1.98;1.67;;;13.50;99.90;;;;;;5064887;28;20031;-57
2021/04/29 06:39:19;;;;;;;1.85;1.70;;;13.50;99.90;;;;;;5065683;28;20024;-56
2021/04/29 06:41:46;;;;;;;2.60;2.40;;;13.50;99.90;;;;;;5066029;28;20025;-57
2021/04/29 06:44:13;;;;;;;2.75;2.30;;;13.60;99.90;;;;;;5068391;28;20101;-57
2021/04/29 06:46:39;;;;;;;2.22;1.92;;;13.60;99.90;;;;;;5048988;28;20033;-57
2021/04/29 06:49:06;;;;;;;2.28;2.00;;;13.70;99.90;;;;;;5049541;28;20021;-56
2021/04/29 06:51:33;;;;;;;2.20;2.00;;;13.80;99.90;;;;;;5060311;28;20495;-56
2021/04/29 06:53:59;;;;;;;2.13;1.92;;;13.90;99.90;;;;;;5068906;28;20024;-57
2021/04/29 06:56:25;;;;;;;2.30;2.10;;;13.90;99.90;;;;;;5057260;28;20108;-56
2021/04/29 06:58:50;;;;;;;2.53;2.00;;;13.80;99.90;;;;;;5049045;28;20108;-57
2021/04/29 07:01:17;;;;;;;2.40;2.10;;;13.90;99.90;;;;;;5049338;28;20467;-56
2021/04/29 07:03:43;;;;;;;3.40;2.33;;;13.90;99.90;;;;;;5048601;28;20021;-57
2021/04/29 07:06:09;;;;;;;2.50;2.20;;;14.00;99.90;;;;;;5048550;28;20035;-57
2021/04/29 07:08:35;;;;;;;2.30;2.10;;;14.00;99.90;;;;;;5048465;28;20021;-57
2021/04/29 07:11:01;;;;;;;3.42;2.70;;;14.00;99.90;;;;;;5048101;28;20090;-57
2021/04/29 07:13:27;;;;;;;3.05;2.33;;;14.00;99.90;;;;;;5055067;28;20110;-57
2021/04/29 07:15:53;;;;;;;2.30;2.10;;;13.90;99.90;;;;;;5065353;28;20036;-57
2021/04/29 07:18:20;;;;;;;2.75;2.17;;;14.00;99.90;;;;;;5060988;28;20029;-56
2021/04/29 07:20:47;;;;;;;2.38;1.80;;;14.10;99.90;;;;;;5049121;28;20308;-57
2021/04/29 07:23:13;;;;;;;2.10;1.50;;;14.20;99.90;;;;;;5063788;28;20028;-57
2021/04/29 07:25:39;;;;;;;1.70;1.60;;;14.20;99.90;;;;;;5064344;28;20024;-56
2021/04/29 07:28:05;;;;;;;2.22;2.03;;;14.20;99.90;;;;;;5047987;28;20110;-56
2021/04/29 07:30:31;;;;;;;3.22;2.45;;;14.30;99.90;;;;;;5067789;28;20033;-57
2021/04/29 07:32:57;;;;;;;2.45;2.13;;;14.10;99.90;;;;;;5063251;28;20052;-56
2021/04/29 07:35:23;;;;;;;2.25;2.05;;;14.00;99.90;;;;;;5051336;28;20110;-57
2021/04/29 07:37:49;;;;;;;2.80;2.50;;;14.20;99.90;;;;;;5066850;28;20397;-56
2021/04/29 07:40:15;;;;;;;2.65;2.13;;;14.20;99.90;;;;;;5068967;28;20033;-56
2021/04/29 07:42:42;;;;;;;2.30;2.10;;;14.20;99.90;;;;;;5066760;28;20032;-56
2021/04/29 07:45:09;;;;;;;2.42;2.17;;;14.30;99.90;;;;;;5068077;28;20025;-57
2021/04/29 07:47:34;;;;;;;3.33;2.60;;;14.30;99.90;;;;;;5067584;28;20036;-56
2021/04/29 07:50:01;;;;;;;2.50;2.30;;;14.40;99.90;;;;;;5067777;28;20055;-57
2021/04/29 07:52:27;;;;;;;3.97;2.75;;;14.50;99.90;;;;;;5066764;28;20039;-56
2021/04/29 07:54:52;;;;;;;2.58;2.20;;;14.40;99.90;;;;;;5068028;28;20036;-57
2021/04/29 07:57:20;;;;;;;2.00;1.80;;;14.50;99.90;;;;;;5069476;28;20078;-56
2021/04/29 07:59:46;;;;;;;2.80;2.10;;;14.50;99.90;;;;;;5069683;28;20052;-56
2021/04/29 08:02:12;;;;;;;2.70;1.95;;;14.50;99.90;;;;;;5068972;28;20537;-56
2021/04/29 08:04:38;;;;;;;2.13;1.92;;;14.50;99.90;;;;;;5069010;28;20445;-56
2021/04/29 08:07:03;;;;;;;2.42;1.80;;;14.50;99.90;;;;;;5069166;28;20021;-56
2021/04/29 08:09:29;;;;;;;2.25;1.60;;;14.40;99.90;;;;;;5068634;28;20086;-57
2021/04/29 08:11:54;;;;;;;1.60;1.50;;;14.50;99.90;;;;;;5068746;28;20024;-56
2021/04/29 08:14:20;;;;;;;1.60;1.50;;;14.60;99.90;;;;;;5067568;28;20028;-56
2021/04/29 08:16:46;;;;;;;2.05;1.80;;;14.70;99.90;;;;;;5069046;28;20036;-56
2021/04/29 08:19:12;;;;;;;1.80;1.67;;;14.80;99.90;;;;;;5068897;28;20040;-56
2021/04/29 08:21:37;;;;;;;1.67;1.40;;;14.80;99.90;;;;;;5068790;28;20103;-56
2021/04/29 08:24:03;;;;;;;2.55;1.63;;;14.80;99.90;;;;;;5068839;28;20529;-56
2021/04/29 08:26:30;;;;;;;3.40;1.30;;;14.80;99.90;;;;;;5067095;28;20659;-57
2021/04/29 08:28:55;;;;;;;2.05;1.50;;;14.80;99.90;;;;;;5067320;28;20422;-56
2021/04/29 08:31:21;;;;;;;1.40;1.30;;;14.70;99.90;;;;;;5068432;28;20103;-57
2021/04/29 08:33:47;;;;;;;2.05;1.60;;;14.80;99.90;;;;;;5069084;28;20403;-56
2021/04/29 08:36:12;;;;;;;1.83;1.70;;;14.90;99.90;;;;;;5068767;28;20031;-57
2021/04/29 08:38:38;;;;;;;1.75;1.58;;;14.90;99.90;;;;;;5068358;28;20028;-57
2021/04/29 08:41:04;;;;;;;1.60;1.50;;;15.00;99.90;;;;;;5068569;28;20081;-57
2021/04/29 08:43:30;;;;;;;2.67;1.70;;;14.90;99.90;;;;;;5068273;28;20024;-57
2021/04/29 08:45:56;;;;;;;1.35;1.25;;;14.60;99.90;;;;;;5068210;28;20021;-57
2021/04/29 08:48:23;;;;;;;1.40;1.30;;;14.80;99.90;;;;;;5067879;28;20044;-57
2021/04/29 08:50:49;;;;;;;1.48;1.38;;;14.90;99.90;;;;;;5068880;28;20051;-57
2021/04/29 08:53:15;;;;;;;1.60;1.50;;;15.00;99.90;;;;;;5068563;28;20021;-56
2021/04/29 08:55:41;;;;;;;1.40;1.30;;;15.00;99.90;;;;;;5067945;28;20040;-57
2021/04/29 08:58:08;;;;;;;2.00;1.30;;;15.10;99.90;;;;;;5068092;28;20119;-57
2021/04/29 09:00:35;;;;;;;1.55;1.45;;;15.10;99.90;;;;;;5067403;28;20032;-57
2021/04/29 09:03:01;;;;;;;1.38;1.27;;;15.10;99.90;;;;;;5086227;28;20033;-57
2021/04/29 09:05:32;;;;;;;2.05;1.58;;;15.00;99.90;;;;;;5087827;28;20024;-57
2021/04/29 09:08:08;;;;;;;1.50;1.40;;;15.10;99.90;;;;;;5086696;28;20092;-57
2021/04/29 09:10:37;;;;;;;1.55;1.45;;;15.00;99.90;;;;;;5080966;28;20520;-57
2021/04/29 09:13:19;;;;;;;1.92;1.45;;;15.10;99.90;;;;;;5066394;28;20309;-57
2021/04/29 09:15:46;;;;;;;1.23;1.13;;;14.90;99.90;;;;;;5066828;28;20029;-57
2021/04/29 09:18:19;;;;;;;1.88;1.40;;;14.90;99.90;;;;;;5066129;28;20032;-57
2021/04/29 09:20:55;;;;;;;1.50;1.40;;;15.00;99.90;;;;;;5066926;28;20122;-57
2021/04/29 09:23:26;;;;;;;1.25;1.15;;;15.10;99.90;;;;;;5065872;28;20044;-57
2021/04/29 09:26:03;;;;;;;1.40;1.30;;;15.20;99.90;;;;;;5066067;28;20506;-57
2021/04/29 09:28:36;;;;;;;1.70;1.40;;;14.90;99.90;;;;;;5065901;28;20052;-57
2021/04/29 09:31:04;;;;;;;0.90;0.90;;;15.00;99.90;;;;;;5045902;28;20419;-57
2021/04/29 09:33:35;;;;;;;1.10;1.02;;;15.20;99.90;;;;;;5045712;28;20081;-56
2021/04/29 09:36:00;;;;;;;1.80;1.25;;;15.20;99.90;;;;;;5045943;28;20407;-57
2021/04/29 09:38:39;;;;;;;1.52;1.42;;;15.10;99.90;;;;;;5045651;28;20032;-57
2021/04/29 09:41:07;;;;;;;1.67;1.48;;;15.10;99.90;;;;;;5046011;28;20439;-57
2021/04/29 09:43:35;;;;;;;1.50;1.40;;;15.20;99.90;;;;;;5045512;28;20021;-57
2021/04/29 09:46:03;;;;;;;1.63;1.40;;;15.30;99.90;;;;;;5045742;28;20497;-57
2021/04/29 09:48:39;;;;;;;2.45;1.10;;;15.30;99.90;;;;;;5045616;28;20017;-57
2021/04/29 09:51:08;;;;;;;1.58;1.20;;;15.30;99.90;;;;;;5045878;28;20509;-57
2021/04/29 09:53:43;;;;;;;1.60;1.50;;;15.30;99.90;;;;;;5045490;28;20107;-57
2021/04/29 09:56:10;;;;;;;1.30;1.20;;;15.40;99.90;;;;;;5045520;28;20029;-57
2021/04/29 09:58:36;;;;;;;1.50;1.35;;;15.30;99.90;;;;;;5045112;28;20430;-57
2021/04/29 10:01:05;;;;;;;1.67;1.58;;;15.40;99.90;;;;;;5045564;28;20025;-57
2021/04/29 10:03:32;;;;;;;1.60;1.50;;;15.10;99.90;;;;;;5045272;28;20040;-57
2021/04/29 10:05:59;;;;;;;1.58;1.27;;;15.00;99.90;;;;;;5052736;28;20506;-57
2021/04/29 10:08:27;;;;;;;1.80;1.17;;;15.10;99.90;;;;;;5064789;28;20013;-57
2021/04/29 10:10:57;;;;;;;1.38;1.27;;;15.10;99.90;;;;;;5065065;28;20398;-57
2021/04/29 10:13:29;;;;;;;1.13;1.02;;;15.10;99.90;;;;;;5065718;28;20040;-58
2021/04/29 10:15:57;;;;;;;2.03;1.38;;;15.40;99.90;;;;;;5066181;28;20407;-58
2021/04/29 10:18:23;;;;;;;1.35;1.25;;;15.50;99.90;;;;;;5065526;28;20020;-58
2021/04/29 10:20:50;;;;;;;1.30;1.20;;;15.50;99.90;;;;;;5066840;28;20158;-58
2021/04/29 10:23:20;;;;;;;1.20;1.10;;;15.50;99.90;;;;;;5058988;28;20517;-58
2021/04/29 10:25:54;;;;;;;0.90;0.90;;;15.60;99.90;;;;;;5066064;28;20035;-58
2021/04/29 10:28:44;;;;;;;1.15;1.13;;;15.60;99.90;;;;;;5066065;28;20013;-58
2021/04/29 10:31:24;;;;;;;1.42;1.27;;;15.70;99.90;;;;;;5066213;28;20032;-58
2021/04/29 10:33:58;;;;;;;1.20;1.10;;;15.70;99.90;;;;;;5066364;28;20055;-57
2021/04/29 10:36:35;;;;;;;0.80;0.80;;;15.60;99.90;;;;;;5066037;28;20028;-57
2021/04/29 10:39:21;;;;;;;1.35;1.25;;;15.70;99.90;;;;;;5066016;28;20391;-58
2021/04/29 10:41:49;;;;;;;1.20;1.10;;;15.80;99.90;;;;;;5064064;28;20032;-59
2021/04/29 10:44:19;;;;;;;1.10;1.00;;;15.80;99.90;;;;;;5064662;28;20494;-59
2021/04/29 10:46:49;;;;;;;1.30;1.23;;;15.70;99.90;;;;;;5064962;28;20021;-59
2021/04/29 10:49:16;;;;;;;0.80;0.80;;;15.70;99.90;;;;;;5064943;28;20063;-59
2021/04/29 10:51:51;;;;;;;1.10;1.00;;;15.80;99.90;;;;;;5064371;28;20117;-59
2021/04/29 10:54:23;;;;;;;1.45;0.90;;;15.80;99.90;;;;;;5063777;28;20086;-59
2021/04/29 10:57:11;;;;;;;1.75;1.00;;;15.90;99.90;;;;;;5064882;28;20450;-59
2021/04/29 10:59:49;;;;;;;1.50;1.13;;;15.90;99.90;;;;;;5064028;28;20485;-58
2021/04/29 11:02:31;;;;;;;1.77;1.10;;;15.90;99.90;;;;;;5064947;28;20228;-59
2021/04/29 11:04:57;;;;;;;1.15;1.05;;;16.00;99.90;;;;;;5064480;28;20116;-59
2021/04/29 11:07:26;;;;;;;0.80;0.80;;;15.90;99.90;;;;;;5064035;28;20028;-59
2021/04/29 11:09:58;;;;;;;1.33;1.23;;;15.80;99.90;;;;;;5064351;28;20047;-59
2021/04/29 11:12:40;;;;;;;1.00;0.90;;;15.90;99.90;;;;;;5064093;28;20418;-59
2021/04/29 11:15:17;;;;;;;1.65;0.98;;;15.90;99.90;;;;;;5063696;28;20154;-59
2021/04/29 11:17:44;;;;;;;0.98;0.98;;;15.90;99.90;;;;;;5064041;28;20062;-58
2021/04/29 11:20:11;;;;;;;1.00;0.90;;;15.80;99.90;;;;;;5064346;28;20111;-58
2021/04/29 11:22:42;;;;;;;1.15;1.00;;;15.90;99.90;;;;;;5063874;28;20051;-58
2021/04/29 11:25:10;;;;;;;0.77;0.77;;;15.80;99.90;;;;;;5064296;28;20016;-58
2021/04/29 11:27:39;;;;;;;1.00;0.85;;;15.70;99.90;;;;;;5063898;28;20419;-58
2021/04/29 11:30:15;;;;;;;1.10;1.00;;;15.60;99.90;;;;;;5067528;28;20017;-58
2021/04/29 11:32:56;;;;;;;0.90;0.90;;;15.60;99.90;;;;;;5067434;28;20032;-58
2021/04/29 11:35:27;;;;;;;1.10;1.00;;;15.70;99.90;;;;;;5067514;28;20033;-59
2021/04/29 11:37:54;;;;;;;1.70;1.48;;;15.60;99.90;;;;;;5067489;28;20173;-59
2021/04/29 11:40:21;;;;;;;1.13;1.02;;;15.40;99.90;;;;;;5067606;28;20021;-59
2021/04/29 11:42:52;;;;;;;1.05;0.88;;;15.50;99.90;;;;;;5066489;28;20558;-58
2021/04/29 11:45:23;;;;;;;3.20;1.33;;;15.40;99.90;;;;;;5068024;28;20028;-58
2021/04/29 11:48:04;;;;;;;1.65;1.20;;;15.20;99.90;;;;;;5067979;28;20044;-59
2021/04/29 11:50:36;;;;;;;1.50;1.20;;;15.30;99.90;;;;;;5066413;28;20017;-59
2021/04/29 11:53:12;;;;;;;1.83;1.10;;;15.30;99.90;;;;;;5066741;28;20145;-58
2021/04/29 11:55:43;;;;;;;1.45;1.13;;;15.10;99.90;;;;;;5067762;28;20024;-59
2021/04/29 11:58:15;;;;;;;1.30;1.00;;;14.70;99.90;;;;;;5066479;28;20448;-59
2021/04/29 12:00:45;;;;;;;2.15;1.40;;;14.40;99.90;;;;;;5067610;28;20033;-60
2021/04/29 12:03:12;;;;;;;1.83;1.00;;;13.40;99.90;;;;;;5067859;28;20043;-58
2021/04/29 12:05:40;;;;;;;0.80;0.80;;;13.10;99.90;;;;;;5067542;28;20028;-58
2021/04/29 12:08:24;;;;;;;0.80;0.80;;;12.90;99.90;;;;;;5067720;28;20020;-57
2021/04/29 12:10:56;;;;;;;0.63;0.63;;;13.20;99.90;;;;;;5067514;28;20021;-57
2021/04/29 12:13:37;;;;;;;0.50;0.50;;;13.20;99.90;;;;;;5067061;28;20054;-57
2021/04/29 12:16:08;;;;;;;0.50;0.50;;;13.30;99.90;;;;;;5067889;28;20081;-57
2021/04/29 12:18:40;;;;;;;0.30;0.30;;;13.30;99.90;;;;;;5067019;28;20020;-58
2021/04/29 12:21:06;;;;;;;0.45;0.45;;;13.20;99.90;;;;;;5067457;28;20121;-58
2021/04/29 12:23:33;;;;;;;1.08;0.60;;;13.20;99.90;;;;;;5067316;28;20047;-58
2021/04/29 12:26:02;;;;;;;0.80;0.60;;;13.10;99.90;;;;;;5067238;28;20042;-57
2021/04/29 12:28:34;;;;;;;0.47;0.47;;;13.20;99.90;;;;;;5066940;28;20483;-58
2021/04/29 12:31:21;;;;;;;0.82;0.80;;;13.20;99.90;;;;;;5067504;28;20021;-57
2021/04/29 12:34:04;;;;;;;1.17;1.08;;;13.40;99.90;;;;;;5067799;28;20070;-58
2021/04/29 12:36:51;;;;;;;1.08;0.88;;;13.40;99.90;;;;;;5066879;28;20020;-58
2021/04/29 12:39:23;;;;;;;0.80;0.80;;;13.50;99.90;;;;;;5067478;28;20493;-57
2021/04/29 12:42:05;;;;;;;1.40;1.25;;;13.50;99.90;;;;;;5067454;28;20027;-58
2021/04/29 12:44:40;;;;;;;1.00;1.00;;;13.50;99.90;;;;;;5067190;28;20424;-58
2021/04/29 12:47:07;;;;;;;1.88;1.50;;;13.50;99.90;;;;;;5066805;28;20099;-58
2021/04/29 12:49:33;;;;;;;2.13;1.20;;;13.30;99.90;;;;;;5066597;28;20024;-58
2021/04/29 12:52:10;;;;;;;1.20;1.10;;;13.20;99.90;;;;;;5066913;28;20107;-57
2021/04/29 12:54:36;;;;;;;1.80;1.05;;;13.40;99.90;;;;;;5066556;28;20081;-58